Terminal Aerodrome Forecast
Issued by NWS

Home | Current Version | Previous Version | Text Only | Print | Product List | Glossary On
Versions: 1 2 3 4 5 6 7 8 9 10 11 12 13 14 15 16 17 18 19 20 21 22
000
FTUS43 KDVN 121700
TAFCID
TAF
KCID 121728Z 1218/1318 16005KT P6SM BKN015
      TEMPO 1218/1219 SCT015 BKN100
     FM121900 14007KT P6SM SCT020 BKN040
      TEMPO 1222/1302 3SM TSRA BKN040CB
     FM130200 04005KT P6SM VCTS BKN040CB
     FM130500 35006KT 5SM BR OVC015
     FM131300 30007KT P6SM BKN050=

USA.gov is the U.S. government's official web portal to all federal, state and local government web resources and services.